sensor_id;sensor_type;location;lat;lon;timestamp;P1;durP1;ratioP1;P2;durP2;ratioP2
25153;SDS011;47555;51.038;6.280;2023-05-10T00:01:53;25.02;;;12.13;;
25153;SDS011;47555;51.038;6.280;2023-05-10T00:04:19;23.33;;;10.57;;
25153;SDS011;47555;51.038;6.280;2023-05-10T00:06:44;24.33;;;10.75;;
25153;SDS011;47555;51.038;6.280;2023-05-10T00:09:10;21.55;;;10.50;;
25153;SDS011;47555;51.038;6.280;2023-05-10T00:11:36;24.70;;;11.45;;
25153;SDS011;47555;51.038;6.280;2023-05-10T00:14:01;25.55;;;12.40;;
25153;SDS011;47555;51.038;6.280;2023-05-10T00:16:27;25.63;;;11.20;;
25153;SDS011;47555;51.038;6.280;2023-05-10T00:18:52;25.15;;;11.13;;
25153;SDS011;47555;51.038;6.280;2023-05-10T00:21:18;26.50;;;11.45;;
25153;SDS011;47555;51.038;6.280;2023-05-10T00:23:43;24.00;;;11.70;;
25153;SDS011;47555;51.038;6.280;2023-05-10T00:26:09;25.77;;;12.05;;
25153;SDS011;47555;51.038;6.280;2023-05-10T00:28:34;23.27;;;10.52;;
25153;SDS011;47555;51.038;6.280;2023-05-10T00:31:00;22.15;;;10.52;;
25153;SDS011;47555;51.038;6.280;2023-05-10T00:33:25;24.02;;;10.30;;
25153;SDS011;47555;51.038;6.280;2023-05-10T00:35:51;25.73;;;11.07;;
25153;SDS011;47555;51.038;6.280;2023-05-10T00:38:17;23.55;;;9.95;;
25153;SDS011;47555;51.038;6.280;2023-05-10T00:40:42;24.52;;;10.82;;
25153;SDS011;47555;51.038;6.280;2023-05-10T00:43:08;23.02;;;10.88;;
25153;SDS011;47555;51.038;6.280;2023-05-10T00:45:34;22.15;;;10.73;;
25153;SDS011;47555;51.038;6.280;2023-05-10T00:48:02;25.20;;;10.10;;
25153;SDS011;47555;51.038;6.280;2023-05-10T00:50:28;23.02;;;9.95;;
25153;SDS011;47555;51.038;6.280;2023-05-10T00:52:55;20.95;;;9.50;;
25153;SDS011;47555;51.038;6.280;2023-05-10T00:55:21;21.92;;;9.60;;
25153;SDS011;47555;51.038;6.280;2023-05-10T00:57:47;24.25;;;9.95;;
25153;SDS011;47555;51.038;6.280;2023-05-10T01:00:13;20.63;;;9.75;;
25153;SDS011;47555;51.038;6.280;2023-05-10T01:02:43;21.27;;;10.23;;
25153;SDS011;47555;51.038;6.280;2023-05-10T01:05:09;23.15;;;9.65;;
25153;SDS011;47555;51.038;6.280;2023-05-10T01:07:34;22.67;;;9.77;;
25153;SDS011;47555;51.038;6.280;2023-05-10T01:10:00;20.90;;;9.23;;
25153;SDS011;47555;51.038;6.280;2023-05-10T01:12:26;21.75;;;9.55;;
25153;SDS011;47555;51.038;6.280;2023-05-10T01:14:51;24.40;;;10.90;;
25153;SDS011;47555;51.038;6.280;2023-05-10T01:17:17;23.55;;;10.15;;
25153;SDS011;47555;51.038;6.280;2023-05-10T01:19:44;25.05;;;11.20;;
25153;SDS011;47555;51.038;6.280;2023-05-10T01:28:02;20.10;;;9.25;;
25153;SDS011;47555;51.038;6.280;2023-05-10T01:31:16;20.15;;;9.73;;
25153;SDS011;47555;51.038;6.280;2023-05-10T01:34:04;18.90;;;8.02;;
25153;SDS011;47555;51.038;6.280;2023-05-10T01:36:48;18.02;;;9.07;;
25153;SDS011;47555;51.038;6.280;2023-05-10T01:44:34;15.85;;;8.23;;
25153;SDS011;47555;51.038;6.280;2023-05-10T01:47:13;19.48;;;8.93;;
25153;SDS011;47555;51.038;6.280;2023-05-10T01:49:52;17.30;;;8.35;;
25153;SDS011;47555;51.038;6.280;2023-05-10T01:52:22;14.80;;;7.88;;
25153;SDS011;47555;51.038;6.280;2023-05-10T01:57:20;17.25;;;8.35;;
25153;SDS011;47555;51.038;6.280;2023-05-10T01:59:50;15.48;;;8.27;;
25153;SDS011;47555;51.038;6.280;2023-05-10T02:02:17;14.70;;;7.13;;
25153;SDS011;47555;51.038;6.280;2023-05-10T02:04:45;17.60;;;8.80;;
25153;SDS011;47555;51.038;6.280;2023-05-10T02:07:12;15.50;;;8.57;;
25153;SDS011;47555;51.038;6.280;2023-05-10T02:09:39;14.85;;;7.63;;
25153;SDS011;47555;51.038;6.280;2023-05-10T02:12:08;15.02;;;7.53;;
25153;SDS011;47555;51.038;6.280;2023-05-10T02:14:37;14.07;;;7.43;;
25153;SDS011;47555;51.038;6.280;2023-05-10T02:17:05;14.02;;;6.85;;
25153;SDS011;47555;51.038;6.280;2023-05-10T02:19:32;18.50;;;9.23;;
25153;SDS011;47555;51.038;6.280;2023-05-10T02:22:00;16.83;;;8.10;;
25153;SDS011;47555;51.038;6.280;2023-05-10T02:24:28;17.27;;;8.05;;
25153;SDS011;47555;51.038;6.280;2023-05-10T02:26:54;15.10;;;7.88;;
25153;SDS011;47555;51.038;6.280;2023-05-10T02:29:21;17.17;;;9.43;;
25153;SDS011;47555;51.038;6.280;2023-05-10T02:31:51;20.58;;;9.32;;
25153;SDS011;47555;51.038;6.280;2023-05-10T02:34:19;15.90;;;7.78;;
25153;SDS011;47555;51.038;6.280;2023-05-10T02:36:47;17.35;;;10.38;;
25153;SDS011;47555;51.038;6.280;2023-05-10T02:39:13;19.98;;;8.95;;
25153;SDS011;47555;51.038;6.280;2023-05-10T02:41:40;22.20;;;9.85;;
25153;SDS011;47555;51.038;6.280;2023-05-10T02:44:08;20.63;;;9.93;;
25153;SDS011;47555;51.038;6.280;2023-05-10T02:46:35;23.98;;;10.38;;
25153;SDS011;47555;51.038;6.280;2023-05-10T02:49:02;27.67;;;12.15;;
25153;SDS011;47555;51.038;6.280;2023-05-10T02:51:30;24.88;;;10.98;;
25153;SDS011;47555;51.038;6.280;2023-05-10T02:53:57;30.55;;;12.90;;
25153;SDS011;47555;51.038;6.280;2023-05-10T02:56:30;31.27;;;13.48;;
25153;SDS011;47555;51.038;6.280;2023-05-10T02:58:58;27.70;;;14.07;;
25153;SDS011;47555;51.038;6.280;2023-05-10T03:01:24;34.17;;;14.93;;
25153;SDS011;47555;51.038;6.280;2023-05-10T03:03:50;34.08;;;14.00;;
25153;SDS011;47555;51.038;6.280;2023-05-10T03:06:16;27.67;;;13.65;;
25153;SDS011;47555;51.038;6.280;2023-05-10T03:08:42;25.92;;;12.65;;
25153;SDS011;47555;51.038;6.280;2023-05-10T03:20:11;27.75;;;13.50;;
25153;SDS011;47555;51.038;6.280;2023-05-10T03:22:50;24.83;;;12.25;;
25153;SDS011;47555;51.038;6.280;2023-05-10T03:25:20;24.48;;;13.07;;
25153;SDS011;47555;51.038;6.280;2023-05-10T03:27:46;22.58;;;12.02;;
25153;SDS011;47555;51.038;6.280;2023-05-10T03:30:12;22.60;;;12.00;;
25153;SDS011;47555;51.038;6.280;2023-05-10T03:32:39;25.23;;;11.05;;
25153;SDS011;47555;51.038;6.280;2023-05-10T03:35:08;20.55;;;11.45;;
25153;SDS011;47555;51.038;6.280;2023-05-10T03:37:34;19.73;;;10.70;;
25153;SDS011;47555;51.038;6.280;2023-05-10T03:40:00;18.88;;;10.18;;
25153;SDS011;47555;51.038;6.280;2023-05-10T03:42:26;21.35;;;10.52;;
25153;SDS011;47555;51.038;6.280;2023-05-10T03:44:52;21.95;;;10.50;;
25153;SDS011;47555;51.038;6.280;2023-05-10T03:47:17;22.63;;;11.05;;
25153;SDS011;47555;51.038;6.280;2023-05-10T03:49:43;22.05;;;11.10;;
25153;SDS011;47555;51.038;6.280;2023-05-10T03:52:11;22.33;;;10.60;;
25153;SDS011;47555;51.038;6.280;2023-05-10T03:54:37;21.60;;;10.93;;
25153;SDS011;47555;51.038;6.280;2023-05-10T03:57:02;20.95;;;10.68;;
25153;SDS011;47555;51.038;6.280;2023-05-10T03:59:28;20.63;;;11.07;;
25153;SDS011;47555;51.038;6.280;2023-05-10T04:01:54;20.10;;;10.52;;
25153;SDS011;47555;51.038;6.280;2023-05-10T04:04:20;21.50;;;10.07;;
25153;SDS011;47555;51.038;6.280;2023-05-10T04:06:46;19.63;;;11.23;;
25153;SDS011;47555;51.038;6.280;2023-05-10T04:09:12;22.85;;;10.68;;
25153;SDS011;47555;51.038;6.280;2023-05-10T04:11:37;19.48;;;11.48;;
25153;SDS011;47555;51.038;6.280;2023-05-10T04:14:03;20.92;;;10.88;;
25153;SDS011;47555;51.038;6.280;2023-05-10T04:16:28;21.35;;;10.98;;
25153;SDS011;47555;51.038;6.280;2023-05-10T04:18:54;25.90;;;11.57;;
25153;SDS011;47555;51.038;6.280;2023-05-10T04:21:19;21.83;;;11.45;;
25153;SDS011;47555;51.038;6.280;2023-05-10T04:23:45;24.33;;;10.52;;
25153;SDS011;47555;51.038;6.280;2023-05-10T04:26:10;23.00;;;10.75;;
25153;SDS011;47555;51.038;6.280;2023-05-10T04:28:36;25.90;;;11.88;;
25153;SDS011;47555;51.038;6.280;2023-05-10T04:31:03;27.15;;;12.02;;
25153;SDS011;47555;51.038;6.280;2023-05-10T04:33:30;23.83;;;10.57;;
25153;SDS011;47555;51.038;6.280;2023-05-10T04:35:55;24.20;;;11.50;;
25153;SDS011;47555;51.038;6.280;2023-05-10T04:38:21;22.17;;;10.18;;
25153;SDS011;47555;51.038;6.280;2023-05-10T04:40:47;21.17;;;10.02;;
25153;SDS011;47555;51.038;6.280;2023-05-10T04:43:12;19.23;;;9.77;;
25153;SDS011;47555;51.038;6.280;2023-05-10T04:45:38;23.42;;;10.93;;
25153;SDS011;47555;51.038;6.280;2023-05-10T04:48:03;23.15;;;11.52;;
25153;SDS011;47555;51.038;6.280;2023-05-10T04:50:29;26.95;;;11.45;;
25153;SDS011;47555;51.038;6.280;2023-05-10T04:52:55;25.92;;;11.45;;
25153;SDS011;47555;51.038;6.280;2023-05-10T04:55:20;25.30;;;12.10;;
25153;SDS011;47555;51.038;6.280;2023-05-10T04:57:46;29.45;;;11.93;;
25153;SDS011;47555;51.038;6.280;2023-05-10T05:00:11;32.00;;;12.88;;
25153;SDS011;47555;51.038;6.280;2023-05-10T05:02:37;26.60;;;12.48;;
25153;SDS011;47555;51.038;6.280;2023-05-10T05:05:03;27.65;;;11.68;;
25153;SDS011;47555;51.038;6.280;2023-05-10T05:07:29;27.58;;;12.50;;
25153;SDS011;47555;51.038;6.280;2023-05-10T05:09:55;29.48;;;12.68;;
25153;SDS011;47555;51.038;6.280;2023-05-10T05:12:24;31.35;;;12.65;;
25153;SDS011;47555;51.038;6.280;2023-05-10T05:14:49;32.78;;;12.88;;
25153;SDS011;47555;51.038;6.280;2023-05-10T05:17:15;28.00;;;13.02;;
25153;SDS011;47555;51.038;6.280;2023-05-10T05:19:41;30.65;;;14.25;;
25153;SDS011;47555;51.038;6.280;2023-05-10T05:22:06;33.08;;;12.52;;
25153;SDS011;47555;51.038;6.280;2023-05-10T05:24:36;35.42;;;14.32;;
25153;SDS011;47555;51.038;6.280;2023-05-10T05:27:03;33.83;;;14.00;;
25153;SDS011;47555;51.038;6.280;2023-05-10T05:29:28;35.15;;;13.50;;
25153;SDS011;47555;51.038;6.280;2023-05-10T05:31:54;29.10;;;12.73;;
25153;SDS011;47555;51.038;6.280;2023-05-10T05:34:20;32.53;;;13.52;;
25153;SDS011;47555;51.038;6.280;2023-05-10T05:36:46;32.75;;;13.27;;
25153;SDS011;47555;51.038;6.280;2023-05-10T05:39:12;30.85;;;12.77;;
25153;SDS011;47555;51.038;6.280;2023-05-10T05:41:38;32.40;;;13.57;;
25153;SDS011;47555;51.038;6.280;2023-05-10T05:44:03;33.88;;;13.70;;
25153;SDS011;47555;51.038;6.280;2023-05-10T05:46:29;35.10;;;13.25;;
25153;SDS011;47555;51.038;6.280;2023-05-10T05:48:54;38.22;;;14.82;;
25153;SDS011;47555;51.038;6.280;2023-05-10T05:51:20;35.17;;;14.63;;
25153;SDS011;47555;51.038;6.280;2023-05-10T05:53:46;34.40;;;14.55;;
25153;SDS011;47555;51.038;6.280;2023-05-10T05:56:11;37.05;;;13.80;;
25153;SDS011;47555;51.038;6.280;2023-05-10T05:58:37;37.42;;;15.40;;
25153;SDS011;47555;51.038;6.280;2023-05-10T06:01:02;35.42;;;14.30;;
25153;SDS011;47555;51.038;6.280;2023-05-10T06:03:28;36.25;;;14.65;;
25153;SDS011;47555;51.038;6.280;2023-05-10T06:05:53;29.90;;;13.52;;
25153;SDS011;47555;51.038;6.280;2023-05-10T06:08:19;33.13;;;13.73;;
25153;SDS011;47555;51.038;6.280;2023-05-10T06:10:45;29.77;;;12.82;;
25153;SDS011;47555;51.038;6.280;2023-05-10T06:13:10;35.85;;;15.40;;
25153;SDS011;47555;51.038;6.280;2023-05-10T06:15:36;35.72;;;14.20;;
25153;SDS011;47555;51.038;6.280;2023-05-10T06:18:02;31.00;;;13.57;;
25153;SDS011;47555;51.038;6.280;2023-05-10T06:20:28;35.10;;;14.43;;
25153;SDS011;47555;51.038;6.280;2023-05-10T06:22:53;33.05;;;13.60;;
25153;SDS011;47555;51.038;6.280;2023-05-10T06:25:19;38.05;;;15.18;;
25153;SDS011;47555;51.038;6.280;2023-05-10T06:27:44;35.35;;;14.18;;
25153;SDS011;47555;51.038;6.280;2023-05-10T06:30:10;35.78;;;14.35;;
25153;SDS011;47555;51.038;6.280;2023-05-10T06:32:38;34.97;;;13.05;;
25153;SDS011;47555;51.038;6.280;2023-05-10T06:35:08;36.67;;;15.38;;
25153;SDS011;47555;51.038;6.280;2023-05-10T06:37:34;37.42;;;14.30;;
25153;SDS011;47555;51.038;6.280;2023-05-10T06:39:59;36.25;;;14.52;;
25153;SDS011;47555;51.038;6.280;2023-05-10T06:42:25;31.40;;;12.90;;
25153;SDS011;47555;51.038;6.280;2023-05-10T06:44:52;33.88;;;14.07;;
25153;SDS011;47555;51.038;6.280;2023-05-10T06:47:17;39.42;;;15.07;;
25153;SDS011;47555;51.038;6.280;2023-05-10T06:49:43;35.15;;;14.52;;
25153;SDS011;47555;51.038;6.280;2023-05-10T06:52:09;36.70;;;15.10;;
25153;SDS011;47555;51.038;6.280;2023-05-10T06:54:37;33.22;;;13.52;;
25153;SDS011;47555;51.038;6.280;2023-05-10T06:57:03;42.13;;;15.48;;
25153;SDS011;47555;51.038;6.280;2023-05-10T06:59:29;38.85;;;15.02;;
25153;SDS011;47555;51.038;6.280;2023-05-10T07:01:54;36.80;;;15.10;;
25153;SDS011;47555;51.038;6.280;2023-05-10T07:04:20;36.42;;;14.73;;
25153;SDS011;47555;51.038;6.280;2023-05-10T07:06:45;42.22;;;15.00;;
25153;SDS011;47555;51.038;6.280;2023-05-10T07:09:11;37.38;;;16.75;;
25153;SDS011;47555;51.038;6.280;2023-05-10T07:11:38;41.65;;;16.35;;
25153;SDS011;47555;51.038;6.280;2023-05-10T07:14:03;44.40;;;16.23;;
25153;SDS011;47555;51.038;6.280;2023-05-10T07:16:29;42.92;;;16.95;;
25153;SDS011;47555;51.038;6.280;2023-05-10T07:18:54;41.88;;;15.15;;
25153;SDS011;47555;51.038;6.280;2023-05-10T07:21:20;44.63;;;15.35;;
25153;SDS011;47555;51.038;6.280;2023-05-10T07:23:45;35.42;;;15.10;;
25153;SDS011;47555;51.038;6.280;2023-05-10T07:26:11;43.28;;;15.18;;
25153;SDS011;47555;51.038;6.280;2023-05-10T07:28:36;46.80;;;16.00;;
25153;SDS011;47555;51.038;6.280;2023-05-10T07:31:03;41.20;;;15.82;;
25153;SDS011;47555;51.038;6.280;2023-05-10T07:33:30;37.75;;;15.55;;
25153;SDS011;47555;51.038;6.280;2023-05-10T07:35:56;40.88;;;14.85;;
25153;SDS011;47555;51.038;6.280;2023-05-10T07:38:22;43.20;;;16.48;;
25153;SDS011;47555;51.038;6.280;2023-05-10T07:40:48;44.53;;;16.60;;
25153;SDS011;47555;51.038;6.280;2023-05-10T07:43:13;42.35;;;15.70;;
25153;SDS011;47555;51.038;6.280;2023-05-10T07:45:39;42.95;;;15.27;;
25153;SDS011;47555;51.038;6.280;2023-05-10T07:48:04;43.67;;;15.85;;
25153;SDS011;47555;51.038;6.280;2023-05-10T07:50:30;47.17;;;17.63;;
25153;SDS011;47555;51.038;6.280;2023-05-10T07:52:55;43.35;;;15.65;;
25153;SDS011;47555;51.038;6.280;2023-05-10T07:55:21;42.20;;;17.10;;
25153;SDS011;47555;51.038;6.280;2023-05-10T07:57:47;45.65;;;17.10;;
25153;SDS011;47555;51.038;6.280;2023-05-10T08:00:12;38.28;;;14.45;;
25153;SDS011;47555;51.038;6.280;2023-05-10T08:02:41;38.50;;;13.90;;
25153;SDS011;47555;51.038;6.280;2023-05-10T08:05:07;38.22;;;15.07;;
25153;SDS011;47555;51.038;6.280;2023-05-10T08:07:32;35.17;;;15.45;;
25153;SDS011;47555;51.038;6.280;2023-05-10T08:09:58;39.45;;;14.98;;
25153;SDS011;47555;51.038;6.280;2023-05-10T08:12:24;33.88;;;13.60;;
25153;SDS011;47555;51.038;6.280;2023-05-10T08:14:49;35.70;;;15.18;;
25153;SDS011;47555;51.038;6.280;2023-05-10T08:17:15;33.78;;;14.30;;
25153;SDS011;47555;51.038;6.280;2023-05-10T08:19:40;36.05;;;13.55;;
25153;SDS011;47555;51.038;6.280;2023-05-10T08:22:06;37.05;;;14.40;;
25153;SDS011;47555;51.038;6.280;2023-05-10T08:24:31;35.50;;;13.70;;
25153;SDS011;47555;51.038;6.280;2023-05-10T08:26:57;35.97;;;13.50;;
25153;SDS011;47555;51.038;6.280;2023-05-10T08:29:23;35.83;;;15.60;;
25153;SDS011;47555;51.038;6.280;2023-05-10T08:31:48;37.50;;;14.82;;
25153;SDS011;47555;51.038;6.280;2023-05-10T08:34:13;35.00;;;14.32;;
25153;SDS011;47555;51.038;6.280;2023-05-10T08:36:39;40.40;;;15.98;;
25153;SDS011;47555;51.038;6.280;2023-05-10T08:39:05;36.58;;;15.48;;
25153;SDS011;47555;51.038;6.280;2023-05-10T08:41:31;40.88;;;17.00;;
25153;SDS011;47555;51.038;6.280;2023-05-10T08:43:58;37.97;;;15.32;;
25153;SDS011;47555;51.038;6.280;2023-05-10T08:46:27;35.72;;;15.00;;
25153;SDS011;47555;51.038;6.280;2023-05-10T08:48:53;37.03;;;15.32;;
25153;SDS011;47555;51.038;6.280;2023-05-10T08:51:22;36.45;;;14.63;;
25153;SDS011;47555;51.038;6.280;2023-05-10T08:53:51;34.40;;;15.02;;
25153;SDS011;47555;51.038;6.280;2023-05-10T08:56:17;36.97;;;15.27;;
25153;SDS011;47555;51.038;6.280;2023-05-10T08:58:43;36.90;;;15.35;;
25153;SDS011;47555;51.038;6.280;2023-05-10T09:01:09;29.95;;;13.80;;
25153;SDS011;47555;51.038;6.280;2023-05-10T09:03:37;26.00;;;12.27;;
25153;SDS011;47555;51.038;6.280;2023-05-10T09:06:03;24.95;;;12.10;;
25153;SDS011;47555;51.038;6.280;2023-05-10T09:08:29;23.65;;;12.00;;
25153;SDS011;47555;51.038;6.280;2023-05-10T09:10:56;25.17;;;12.43;;
25153;SDS011;47555;51.038;6.280;2023-05-10T09:13:22;27.13;;;11.52;;
25153;SDS011;47555;51.038;6.280;2023-05-10T09:15:48;25.13;;;11.73;;
25153;SDS011;47555;51.038;6.280;2023-05-10T09:18:14;18.02;;;10.10;;
25153;SDS011;47555;51.038;6.280;2023-05-10T09:20:40;19.98;;;9.07;;
25153;SDS011;47555;51.038;6.280;2023-05-10T09:23:05;17.95;;;8.73;;
25153;SDS011;47555;51.038;6.280;2023-05-10T09:25:31;18.48;;;8.98;;
25153;SDS011;47555;51.038;6.280;2023-05-10T09:28:00;18.35;;;8.32;;
25153;SDS011;47555;51.038;6.280;2023-05-10T09:30:27;17.90;;;8.13;;
25153;SDS011;47555;51.038;6.280;2023-05-10T09:32:54;17.02;;;8.32;;
25153;SDS011;47555;51.038;6.280;2023-05-10T09:35:21;16.98;;;7.43;;
25153;SDS011;47555;51.038;6.280;2023-05-10T09:37:52;14.33;;;7.23;;
25153;SDS011;47555;51.038;6.280;2023-05-10T09:40:23;16.60;;;7.97;;
25153;SDS011;47555;51.038;6.280;2023-05-10T09:42:53;14.98;;;7.70;;
25153;SDS011;47555;51.038;6.280;2023-05-10T09:45:21;18.48;;;8.32;;
25153;SDS011;47555;51.038;6.280;2023-05-10T09:47:48;16.85;;;8.32;;
25153;SDS011;47555;51.038;6.280;2023-05-10T09:50:13;17.30;;;8.68;;
25153;SDS011;47555;51.038;6.280;2023-05-10T09:52:52;17.52;;;8.15;;
25153;SDS011;47555;51.038;6.280;2023-05-10T09:55:38;20.52;;;9.68;;
25153;SDS011;47555;51.038;6.280;2023-05-10T09:58:06;19.88;;;9.38;;
25153;SDS011;47555;51.038;6.280;2023-05-10T10:00:35;18.83;;;9.48;;
25153;SDS011;47555;51.038;6.280;2023-05-10T10:03:02;19.85;;;8.18;;
25153;SDS011;47555;51.038;6.280;2023-05-10T10:05:29;22.35;;;10.32;;
25153;SDS011;47555;51.038;6.280;2023-05-10T10:07:56;16.90;;;8.80;;
25153;SDS011;47555;51.038;6.280;2023-05-10T10:10:23;15.77;;;8.73;;
25153;SDS011;47555;51.038;6.280;2023-05-10T10:12:50;15.63;;;8.75;;
25153;SDS011;47555;51.038;6.280;2023-05-10T10:15:16;15.50;;;8.30;;
25153;SDS011;47555;51.038;6.280;2023-05-10T10:17:42;11.80;;;7.47;;
25153;SDS011;47555;51.038;6.280;2023-05-10T10:20:08;13.52;;;7.22;;
25153;SDS011;47555;51.038;6.280;2023-05-10T10:22:34;12.50;;;6.82;;
25153;SDS011;47555;51.038;6.280;2023-05-10T10:25:01;12.40;;;7.15;;
25153;SDS011;47555;51.038;6.280;2023-05-10T10:30:01;12.70;;;7.07;;
25153;SDS011;47555;51.038;6.280;2023-05-10T10:35:28;13.93;;;8.32;;
25153;SDS011;47555;51.038;6.280;2023-05-10T10:37:55;11.93;;;6.70;;
25153;SDS011;47555;51.038;6.280;2023-05-10T10:40:25;13.00;;;6.90;;
25153;SDS011;47555;51.038;6.280;2023-05-10T10:42:52;10.80;;;6.32;;
25153;SDS011;47555;51.038;6.280;2023-05-10T10:45:19;11.77;;;6.40;;
25153;SDS011;47555;51.038;6.280;2023-05-10T10:47:45;10.57;;;5.55;;
25153;SDS011;47555;51.038;6.280;2023-05-10T10:50:11;9.82;;;6.00;;
25153;SDS011;47555;51.038;6.280;2023-05-10T10:52:42;8.20;;;5.30;;
25153;SDS011;47555;51.038;6.280;2023-05-10T10:55:09;7.97;;;4.95;;
25153;SDS011;47555;51.038;6.280;2023-05-10T11:08:00;8.80;;;5.90;;
25153;SDS011;47555;51.038;6.280;2023-05-10T11:10:53;9.73;;;5.22;;
25153;SDS011;47555;51.038;6.280;2023-05-10T11:13:29;7.30;;;4.53;;
25153;SDS011;47555;51.038;6.280;2023-05-10T11:16:16;8.82;;;5.10;;
25153;SDS011;47555;51.038;6.280;2023-05-10T11:18:53;8.98;;;4.40;;
25153;SDS011;47555;51.038;6.280;2023-05-10T11:21:23;7.45;;;4.95;;
25153;SDS011;47555;51.038;6.280;2023-05-10T11:23:50;9.90;;;5.80;;
25153;SDS011;47555;51.038;6.280;2023-05-10T11:26:22;9.93;;;5.22;;
25153;SDS011;47555;51.038;6.280;2023-05-10T11:28:54;8.80;;;5.10;;
25153;SDS011;47555;51.038;6.280;2023-05-10T11:31:20;10.10;;;5.65;;
25153;SDS011;47555;51.038;6.280;2023-05-10T11:33:47;13.60;;;5.40;;
25153;SDS011;47555;51.038;6.280;2023-05-10T11:36:15;11.48;;;6.05;;
25153;SDS011;47555;51.038;6.280;2023-05-10T11:38:45;9.63;;;5.97;;
25153;SDS011;47555;51.038;6.280;2023-05-10T11:41:12;8.70;;;6.07;;
25153;SDS011;47555;51.038;6.280;2023-05-10T11:43:39;10.85;;;6.07;;
25153;SDS011;47555;51.038;6.280;2023-05-10T11:46:09;10.40;;;5.25;;
25153;SDS011;47555;51.038;6.280;2023-05-10T11:48:40;7.18;;;5.00;;
25153;SDS011;47555;51.038;6.280;2023-05-10T11:51:10;7.05;;;4.95;;
25153;SDS011;47555;51.038;6.280;2023-05-10T11:53:36;8.95;;;4.97;;
25153;SDS011;47555;51.038;6.280;2023-05-10T11:56:09;11.38;;;5.78;;
25153;SDS011;47555;51.038;6.280;2023-05-10T11:58:35;8.32;;;4.93;;
25153;SDS011;47555;51.038;6.280;2023-05-10T12:01:03;6.65;;;4.63;;
25153;SDS011;47555;51.038;6.280;2023-05-10T12:03:30;7.45;;;4.63;;
25153;SDS011;47555;51.038;6.280;2023-05-10T12:05:56;8.45;;;4.95;;
25153;SDS011;47555;51.038;6.280;2023-05-10T12:08:23;8.13;;;5.07;;
25153;SDS011;47555;51.038;6.280;2023-05-10T12:11:03;7.25;;;4.60;;
25153;SDS011;47555;51.038;6.280;2023-05-10T12:13:30;7.05;;;4.68;;
25153;SDS011;47555;51.038;6.280;2023-05-10T12:15:59;8.23;;;4.68;;
25153;SDS011;47555;51.038;6.280;2023-05-10T12:18:27;7.28;;;4.05;;
25153;SDS011;47555;51.038;6.280;2023-05-10T12:20:53;7.00;;;4.03;;
25153;SDS011;47555;51.038;6.280;2023-05-10T12:23:19;7.88;;;4.80;;
25153;SDS011;47555;51.038;6.280;2023-05-10T12:25:45;6.53;;;4.43;;
25153;SDS011;47555;51.038;6.280;2023-05-10T12:28:11;6.07;;;3.90;;
25153;SDS011;47555;51.038;6.280;2023-05-10T12:30:37;6.68;;;4.22;;
25153;SDS011;47555;51.038;6.280;2023-05-10T12:35:33;6.43;;;3.72;;
25153;SDS011;47555;51.038;6.280;2023-05-10T12:41:13;5.30;;;3.22;;
25153;SDS011;47555;51.038;6.280;2023-05-10T12:43:40;6.32;;;3.58;;
25153;SDS011;47555;51.038;6.280;2023-05-10T12:46:07;5.53;;;3.35;;
25153;SDS011;47555;51.038;6.280;2023-05-10T12:48:34;4.40;;;3.20;;
25153;SDS011;47555;51.038;6.280;2023-05-10T12:51:01;5.22;;;3.53;;
25153;SDS011;47555;51.038;6.280;2023-05-10T12:53:27;5.70;;;3.28;;
25153;SDS011;47555;51.038;6.280;2023-05-10T12:55:53;4.65;;;3.70;;
25153;SDS011;47555;51.038;6.280;2023-05-10T12:58:18;6.35;;;3.72;;
25153;SDS011;47555;51.038;6.280;2023-05-10T13:00:44;7.05;;;3.58;;
25153;SDS011;47555;51.038;6.280;2023-05-10T13:03:10;7.07;;;3.55;;
25153;SDS011;47555;51.038;6.280;2023-05-10T13:05:36;5.97;;;3.88;;
25153;SDS011;47555;51.038;6.280;2023-05-10T13:08:01;9.50;;;3.35;;
25153;SDS011;47555;51.038;6.280;2023-05-10T13:10:30;6.00;;;3.90;;
25153;SDS011;47555;51.038;6.280;2023-05-10T13:12:57;7.00;;;3.95;;
25153;SDS011;47555;51.038;6.280;2023-05-10T13:15:25;5.93;;;4.15;;
25153;SDS011;47555;51.038;6.280;2023-05-10T13:17:52;7.53;;;3.78;;
25153;SDS011;47555;51.038;6.280;2023-05-10T13:20:18;5.20;;;3.80;;
25153;SDS011;47555;51.038;6.280;2023-05-10T13:22:44;4.68;;;3.20;;
25153;SDS011;47555;51.038;6.280;2023-05-10T13:25:10;5.72;;;3.22;;
25153;SDS011;47555;51.038;6.280;2023-05-10T13:27:36;5.40;;;3.30;;
25153;SDS011;47555;51.038;6.280;2023-05-10T13:30:02;6.35;;;3.95;;
25153;SDS011;47555;51.038;6.280;2023-05-10T13:32:29;5.88;;;3.97;;
25153;SDS011;47555;51.038;6.280;2023-05-10T13:34:54;5.45;;;3.83;;
25153;SDS011;47555;51.038;6.280;2023-05-10T13:37:20;7.68;;;4.40;;
25153;SDS011;47555;51.038;6.280;2023-05-10T13:39:46;5.85;;;3.90;;
25153;SDS011;47555;51.038;6.280;2023-05-10T13:42:12;6.65;;;3.95;;
25153;SDS011;47555;51.038;6.280;2023-05-10T13:44:37;5.13;;;3.80;;
25153;SDS011;47555;51.038;6.280;2023-05-10T13:47:03;8.88;;;4.93;;
25153;SDS011;47555;51.038;6.280;2023-05-10T13:49:29;5.95;;;4.15;;
25153;SDS011;47555;51.038;6.280;2023-05-10T13:51:55;7.47;;;4.28;;
25153;SDS011;47555;51.038;6.280;2023-05-10T13:54:20;5.68;;;4.03;;
25153;SDS011;47555;51.038;6.280;2023-05-10T13:56:47;6.00;;;3.78;;
25153;SDS011;47555;51.038;6.280;2023-05-10T13:59:13;4.97;;;3.80;;
25153;SDS011;47555;51.038;6.280;2023-05-10T14:01:39;7.60;;;4.07;;
25153;SDS011;47555;51.038;6.280;2023-05-10T14:04:05;6.03;;;3.75;;
25153;SDS011;47555;51.038;6.280;2023-05-10T14:06:31;6.30;;;3.65;;
25153;SDS011;47555;51.038;6.280;2023-05-10T14:08:57;5.28;;;3.78;;
25153;SDS011;47555;51.038;6.280;2023-05-10T14:11:22;6.10;;;3.90;;
25153;SDS011;47555;51.038;6.280;2023-05-10T14:13:48;8.20;;;3.70;;
25153;SDS011;47555;51.038;6.280;2023-05-10T14:16:14;5.20;;;3.60;;
25153;SDS011;47555;51.038;6.280;2023-05-10T14:18:39;7.30;;;3.75;;
25153;SDS011;47555;51.038;6.280;2023-05-10T14:21:05;6.65;;;3.60;;
25153;SDS011;47555;51.038;6.280;2023-05-10T14:23:31;6.32;;;3.88;;
25153;SDS011;47555;51.038;6.280;2023-05-10T14:25:56;5.07;;;3.03;;
25153;SDS011;47555;51.038;6.280;2023-05-10T14:28:22;4.95;;;2.95;;
25153;SDS011;47555;51.038;6.280;2023-05-10T14:30:48;4.88;;;3.20;;
25153;SDS011;47555;51.038;6.280;2023-05-10T14:33:14;5.15;;;3.42;;
25153;SDS011;47555;51.038;6.280;2023-05-10T14:35:39;6.32;;;3.53;;
25153;SDS011;47555;51.038;6.280;2023-05-10T14:38:05;3.67;;;2.65;;
25153;SDS011;47555;51.038;6.280;2023-05-10T14:40:31;4.28;;;2.70;;
25153;SDS011;47555;51.038;6.280;2023-05-10T14:42:56;3.88;;;3.15;;
25153;SDS011;47555;51.038;6.280;2023-05-10T14:45:22;6.70;;;3.47;;
25153;SDS011;47555;51.038;6.280;2023-05-10T14:47:48;7.15;;;3.03;;
25153;SDS011;47555;51.038;6.280;2023-05-10T14:50:14;5.00;;;3.25;;
25153;SDS011;47555;51.038;6.280;2023-05-10T14:52:40;4.72;;;3.22;;
25153;SDS011;47555;51.038;6.280;2023-05-10T14:55:05;5.75;;;3.03;;
25153;SDS011;47555;51.038;6.280;2023-05-10T14:57:31;4.65;;;3.00;;
25153;SDS011;47555;51.038;6.280;2023-05-10T14:59:57;6.25;;;3.10;;
25153;SDS011;47555;51.038;6.280;2023-05-10T15:02:22;5.28;;;3.35;;
25153;SDS011;47555;51.038;6.280;2023-05-10T15:04:48;3.78;;;2.75;;
25153;SDS011;47555;51.038;6.280;2023-05-10T15:07:13;4.72;;;2.67;;
25153;SDS011;47555;51.038;6.280;2023-05-10T15:09:41;4.38;;;2.67;;
25153;SDS011;47555;51.038;6.280;2023-05-10T15:12:06;3.63;;;2.08;;
25153;SDS011;47555;51.038;6.280;2023-05-10T15:14:32;2.45;;;1.92;;